Time;durP1;ratioP1;P1;durP2;ratioP2;P2;SDS_P1;SDS_P2;PMS_P1;PMS_P2;Temp;Humidity;BMP_temperature;BMP_pressure;BME280_temperature;BME280_humidity;BME280_pressure;Samples;Min_cycle;Max_cycle;Signal;HPM_P1;HPM_P2
2023/02/19 00:01:16;;;;;;;13.77;11.27;;;10.50;99.90;;;;;;5036509;28;20765;-78
2023/02/19 00:03:48;;;;;;;13.93;11.23;;;10.50;99.90;;;;;;5036023;28;20507;-78
2023/02/19 00:06:13;;;;;;;16.40;12.60;;;10.60;99.90;;;;;;5036235;28;20836;-78
2023/02/19 00:08:39;;;;;;;15.97;12.00;;;10.60;99.90;;;;;;5036249;28;20413;-78
2023/02/19 00:11:07;;;;;;;16.40;13.77;;;10.60;99.90;;;;;;5036470;28;20256;-78
2023/02/19 00:13:38;;;;;;;21.07;16.50;;;10.60;99.90;;;;;;5035801;28;20194;-79
2023/02/19 00:16:08;;;;;;;21.53;16.63;;;10.60;99.90;;;;;;5018915;28;20416;-77
2023/02/19 00:18:34;;;;;;;20.37;16.43;;;10.60;99.90;;;;;;5034410;28;20405;-78
2023/02/19 00:21:01;;;;;;;23.30;16.30;;;10.60;99.90;;;;;;5035645;28;20464;-79
2023/02/19 00:23:26;;;;;;;25.47;19.20;;;10.60;99.90;;;;;;5035668;28;20964;-77
2023/02/19 00:25:53;;;;;;;22.10;16.60;;;10.50;99.90;;;;;;5035999;28;20413;-79
2023/02/19 00:28:19;;;;;;;24.67;18.63;;;10.50;99.90;;;;;;5034818;28;20186;-78
2023/02/19 00:30:44;;;;;;;24.53;19.03;;;10.60;99.90;;;;;;5035898;28;20418;-78
2023/02/19 00:33:10;;;;;;;22.97;17.73;;;10.60;99.90;;;;;;5035701;28;20437;-78
2023/02/19 00:35:36;;;;;;;23.73;18.60;;;10.60;99.90;;;;;;5034048;28;20185;-79
2023/02/19 00:38:02;;;;;;;23.00;18.90;;;10.60;99.90;;;;;;5035528;28;20185;-78
2023/02/19 00:40:27;;;;;;;25.87;18.63;;;10.60;99.90;;;;;;5048773;28;20277;-77
2023/02/19 00:42:53;;;;;;;22.47;17.67;;;10.50;99.90;;;;;;5053891;28;20469;-79
2023/02/19 00:45:19;;;;;;;22.10;17.80;;;10.60;99.90;;;;;;5054475;28;20181;-78
2023/02/19 00:47:44;;;;;;;17.97;14.07;;;10.60;99.90;;;;;;5054230;28;20591;-79
2023/02/19 00:50:10;;;;;;;19.83;15.77;;;10.60;99.90;;;;;;5054867;28;20178;-79
2023/02/19 00:52:36;;;;;;;16.10;13.60;;;10.60;99.90;;;;;;5037881;28;20264;-78
2023/02/19 00:55:02;;;;;;;17.00;14.10;;;10.50;99.90;;;;;;5054870;28;20177;-79
2023/02/19 00:57:28;;;;;;;15.70;11.97;;;10.50;99.90;;;;;;5054387;28;20182;-79
2023/02/19 00:59:53;;;;;;;13.77;11.30;;;10.60;99.90;;;;;;5055060;28;20804;-78
2023/02/19 01:02:19;;;;;;;17.33;12.17;;;10.60;99.90;;;;;;5053365;28;20190;-79
2023/02/19 01:04:44;;;;;;;12.67;10.37;;;10.60;99.90;;;;;;5036788;28;20543;-76
2023/02/19 01:07:10;;;;;;;12.07;10.77;;;10.60;99.90;;;;;;5034431;28;20162;-79
2023/02/19 01:09:37;;;;;;;15.17;12.70;;;10.60;99.90;;;;;;5034468;28;20179;-79
2023/02/19 01:12:06;;;;;;;14.33;11.50;;;10.60;99.90;;;;;;5034637;28;20222;-79
2023/02/19 01:14:32;;;;;;;14.80;12.43;;;10.60;99.90;;;;;;5033129;28;20720;-79
2023/02/19 01:16:58;;;;;;;18.63;14.00;;;10.60;99.90;;;;;;5033362;28;20417;-79
2023/02/19 01:19:24;;;;;;;16.60;13.80;;;10.50;99.90;;;;;;5032865;28;20468;-79
2023/02/19 01:21:49;;;;;;;18.33;15.00;;;10.60;99.90;;;;;;5034564;28;20213;-78
2023/02/19 01:24:15;;;;;;;16.57;13.57;;;10.60;99.90;;;;;;5032616;28;20182;-78
2023/02/19 01:26:41;;;;;;;17.40;14.53;;;10.50;99.90;;;;;;5017037;28;20468;-78
2023/02/19 01:29:08;;;;;;;18.23;14.60;;;10.60;99.90;;;;;;5034471;28;20439;-77
2023/02/19 01:31:34;;;;;;;19.87;16.30;;;10.60;99.90;;;;;;5038339;28;20470;-76
2023/02/19 01:34:01;;;;;;;23.00;18.10;;;10.60;99.90;;;;;;5051920;28;20409;-75
2023/02/19 01:36:28;;;;;;;21.03;15.97;;;10.60;99.90;;;;;;5048030;28;20265;-77
2023/02/19 01:38:54;;;;;;;21.80;17.30;;;10.60;99.90;;;;;;5034513;28;20457;-78
2023/02/19 01:41:24;;;;;;;27.80;21.20;;;10.60;99.90;;;;;;5032641;28;20409;-78
2023/02/19 01:43:58;;;;;;;26.30;19.10;;;10.60;99.90;;;;;;5033201;28;20409;-78
2023/02/19 01:46:29;;;;;;;26.53;19.50;;;10.60;99.90;;;;;;5033523;28;20415;-78
2023/02/19 01:48:58;;;;;;;25.93;19.77;;;10.60;99.90;;;;;;5033754;28;20420;-78
2023/02/19 01:51:23;;;;;;;26.27;19.87;;;10.50;99.90;;;;;;5033325;28;20840;-78
2023/02/19 01:53:55;;;;;;;32.60;23.10;;;10.60;99.90;;;;;;5015798;28;20475;-78
2023/02/19 01:56:23;;;;;;;30.60;21.43;;;10.50;99.90;;;;;;5032780;28;20186;-78
2023/02/19 01:58:49;;;;;;;27.30;20.97;;;10.50;99.90;;;;;;5032129;28;20417;-79
2023/02/19 02:01:15;;;;;;;24.50;19.27;;;10.60;99.90;;;;;;5032270;28;20735;-78
2023/02/19 02:03:43;;;;;;;25.93;18.33;;;10.60;99.90;;;;;;5032171;28;20625;-78
2023/02/19 02:06:23;;;;;;;23.63;19.10;;;10.60;99.90;;;;;;5032680;28;20171;-78
2023/02/19 02:11:46;;;;;;;25.37;19.23;;;10.60;99.90;;;;;;5033485;28;20453;-78
2023/02/19 02:14:12;;;;;;;22.57;18.40;;;10.60;99.90;;;;;;5033327;28;20475;-78
2023/02/19 02:16:40;;;;;;;21.97;18.17;;;10.60;99.90;;;;;;5033437;28;20445;-78
2023/02/19 02:19:12;;;;;;;27.17;20.07;;;10.50;99.90;;;;;;5032578;28;20441;-78
2023/02/19 02:21:57;;;;;;;22.53;16.80;;;10.50;99.90;;;;;;5033525;28;20448;-78
2023/02/19 02:24:42;;;;;;;23.70;18.60;;;10.50;99.90;;;;;;5015963;28;20425;-77
2023/02/19 02:27:13;;;;;;;22.90;17.77;;;10.50;99.90;;;;;;5033186;28;20420;-78
2023/02/19 02:29:59;;;;;;;23.60;16.63;;;10.50;99.90;;;;;;5032616;28;20835;-78
2023/02/19 02:32:32;;;;;;;20.53;16.80;;;10.50;99.90;;;;;;5030118;28;20444;-77
2023/02/19 02:35:04;;;;;;;26.43;16.17;;;10.50;99.90;;;;;;5033163;28;20421;-77
2023/02/19 02:37:34;;;;;;;24.17;17.43;;;10.50;99.90;;;;;;5032308;28;20425;-77
2023/02/19 02:40:02;;;;;;;23.07;16.60;;;10.50;99.90;;;;;;5032631;28;20481;-78
2023/02/19 02:42:28;;;;;;;23.80;17.30;;;10.50;99.90;;;;;;5033761;28;20524;-78
2023/02/19 02:47:49;;;;;;;20.07;16.13;;;10.50;99.90;;;;;;5033326;28;20166;-78
2023/02/19 02:50:23;;;;;;;26.97;16.60;;;10.50;99.90;;;;;;5032409;28;20963;-79
2023/02/19 02:55:46;;;;;;;24.27;16.03;;;10.50;99.90;;;;;;5033276;28;20421;-79
2023/02/19 02:58:12;;;;;;;21.97;16.10;;;10.50;99.90;;;;;;5033456;28;20421;-79
2023/02/19 03:03:27;;;;;;;20.07;16.23;;;10.50;99.90;;;;;;5031642;28;20432;-79
2023/02/19 03:05:57;;;;;;;22.97;18.00;;;10.50;99.90;;;;;;5033923;28;20926;-79
2023/02/19 03:08:45;;;;;;;26.37;19.30;;;10.50;99.90;;;;;;5033672;28;20444;-79
2023/02/19 03:19:51;;;;;;;28.30;20.60;;;10.40;99.90;;;;;;5036914;28;20500;-78
2023/02/19 03:22:23;;;;;;;33.53;19.00;;;10.40;99.90;;;;;;5037504;28;20465;-80
2023/02/19 03:27:53;;;;;;;27.53;18.63;;;10.50;99.90;;;;;;5037302;28;20507;-79
2023/02/19 03:30:28;;;;;;;26.10;18.13;;;10.50;99.90;;;;;;5036024;28;20544;-79
2023/02/19 03:32:56;;;;;;;24.53;17.47;;;10.50;99.90;;;;;;5036790;28;20463;-77
2023/02/19 03:35:26;;;;;;;27.40;18.50;;;10.50;99.90;;;;;;5037208;28;20501;-78
2023/02/19 03:38:08;;;;;;;28.77;18.23;;;10.50;99.90;;;;;;5037545;28;20413;-78
2023/02/19 03:40:42;;;;;;;25.03;17.57;;;10.40;99.90;;;;;;5036604;28;20461;-78
2023/02/19 03:43:16;;;;;;;25.23;16.53;;;10.40;99.90;;;;;;5036729;28;20512;-79
2023/02/19 03:46:22;;;;;;;26.17;17.97;;;10.50;99.90;;;;;;5036558;28;20433;-77
2023/02/19 03:49:09;;;;;;;25.40;16.87;;;10.50;99.90;;;;;;5018778;28;20424;-77
2023/02/19 03:51:40;;;;;;;25.80;16.70;;;10.40;99.90;;;;;;5036370;28;20425;-77
2023/02/19 03:54:09;;;;;;;23.77;16.67;;;10.40;99.90;;;;;;5035051;28;20409;-78
2023/02/19 03:56:59;;;;;;;24.97;16.87;;;10.40;99.90;;;;;;5036196;28;20417;-77
2023/02/19 03:59:31;;;;;;;27.10;18.60;;;10.40;99.90;;;;;;5035830;28;20530;-79
2023/02/19 04:02:21;;;;;;;26.80;17.50;;;10.40;99.90;;;;;;5037266;28;20862;-78
2023/02/19 04:04:57;;;;;;;22.93;17.07;;;10.40;99.90;;;;;;5036139;28;20996;-78
2023/02/19 04:07:25;;;;;;;24.67;17.07;;;10.40;99.90;;;;;;5034693;28;20425;-78
2023/02/19 04:09:52;;;;;;;26.97;17.33;;;10.40;99.90;;;;;;5037195;28;20495;-79
2023/02/19 04:12:20;;;;;;;23.50;16.60;;;10.40;99.90;;;;;;5036420;28;20465;-79
2023/02/19 04:14:48;;;;;;;29.57;17.70;;;10.40;99.90;;;;;;5035812;28;20433;-79
2023/02/19 04:17:22;;;;;;;26.30;17.43;;;10.40;99.90;;;;;;5036174;28;20456;-79
2023/02/19 04:19:50;;;;;;;23.13;16.40;;;10.40;99.90;;;;;;5034709;28;20467;-80
2023/02/19 04:22:16;;;;;;;30.53;16.90;;;10.40;99.90;;;;;;5034182;28;20767;-79
2023/02/19 04:24:51;;;;;;;23.80;15.87;;;10.40;99.90;;;;;;5036488;28;20508;-79
2023/02/19 04:27:18;;;;;;;21.20;15.77;;;10.40;99.90;;;;;;5034974;28;20431;-77
2023/02/19 04:29:44;;;;;;;24.77;16.80;;;10.40;99.90;;;;;;5035996;28;20424;-79
2023/02/19 04:32:11;;;;;;;22.13;15.53;;;10.40;99.90;;;;;;5035646;28;20441;-77
2023/02/19 04:34:36;;;;;;;22.10;15.90;;;10.40;99.90;;;;;;5035005;28;20190;-80
2023/02/19 04:37:02;;;;;;;21.27;14.97;;;10.40;99.90;;;;;;5017969;28;21017;-79
2023/02/19 04:39:28;;;;;;;18.63;15.27;;;10.40;99.90;;;;;;5042636;28;20685;-77
2023/02/19 04:41:54;;;;;;;20.00;15.73;;;10.40;99.90;;;;;;5055127;28;20432;-76
2023/02/19 04:44:20;;;;;;;21.93;14.70;;;10.30;99.90;;;;;;5055943;28;20177;-79
2023/02/19 04:46:45;;;;;;;24.70;14.60;;;10.30;99.90;;;;;;5054806;28;20174;-79
2023/02/19 04:49:11;;;;;;;16.97;13.80;;;10.20;99.90;;;;;;5055432;28;20855;-79
2023/02/19 04:51:38;;;;;;;23.80;16.53;;;10.30;99.90;;;;;;5054612;28;20263;-79
2023/02/19 04:54:04;;;;;;;20.77;16.00;;;10.30;99.90;;;;;;5055887;28;20630;-79
2023/02/19 04:56:29;;;;;;;22.83;16.40;;;10.30;99.90;;;;;;5037840;28;20443;-80
2023/02/19 04:58:55;;;;;;;23.27;17.00;;;10.30;99.90;;;;;;5055362;28;20514;-79
2023/02/19 05:01:21;;;;;;;25.83;18.43;;;10.30;99.90;;;;;;5055796;28;20184;-79
2023/02/19 05:03:47;;;;;;;23.90;18.00;;;10.30;99.90;;;;;;5054416;28;21031;-78
2023/02/19 05:06:13;;;;;;;23.80;18.07;;;10.20;99.90;;;;;;5056537;28;20188;-78
2023/02/19 05:08:39;;;;;;;21.50;16.90;;;10.30;99.90;;;;;;5054793;28;20170;-77
2023/02/19 05:11:07;;;;;;;23.50;17.73;;;10.20;99.90;;;;;;5055426;28;20503;-76
2023/02/19 05:13:33;;;;;;;20.20;14.93;;;10.30;99.90;;;;;;5055532;28;20438;-77
2023/02/19 05:16:17;;;;;;;15.80;13.30;;;10.30;99.90;;;;;;5050145;28;20421;-78
2023/02/19 05:18:45;;;;;;;18.20;13.70;;;10.20;99.90;;;;;;5033898;28;20198;-78
2023/02/19 05:21:12;;;;;;;18.40;13.63;;;10.30;99.90;;;;;;5034468;28;20562;-79
2023/02/19 05:23:38;;;;;;;16.23;12.67;;;10.20;99.90;;;;;;5035547;28;20444;-77
2023/02/19 05:26:05;;;;;;;20.07;14.23;;;10.20;99.90;;;;;;5035946;28;20444;-78
2023/02/19 05:28:31;;;;;;;17.97;11.97;;;10.20;99.90;;;;;;5033104;28;20512;-78
2023/02/19 05:30:57;;;;;;;19.10;13.03;;;10.20;99.90;;;;;;5034382;28;20452;-78
2023/02/19 05:33:24;;;;;;;20.60;13.00;;;10.20;99.90;;;;;;5034180;28;20198;-78
2023/02/19 05:35:53;;;;;;;17.77;14.10;;;10.20;99.90;;;;;;5036131;28;20204;-78
2023/02/19 05:38:19;;;;;;;21.50;17.30;;;10.20;99.90;;;;;;5036304;28;20425;-79
2023/02/19 05:40:45;;;;;;;24.07;16.70;;;10.20;99.90;;;;;;5042687;28;20559;-78
2023/02/19 05:43:12;;;;;;;24.23;17.10;;;10.20;99.90;;;;;;5034632;28;20444;-79
2023/02/19 05:45:39;;;;;;;21.73;17.27;;;10.20;99.90;;;;;;5035074;28;20425;-78
2023/02/19 05:48:06;;;;;;;24.57;17.90;;;10.20;99.90;;;;;;5031759;28;20577;-77
2023/02/19 05:50:34;;;;;;;23.60;17.30;;;10.20;99.90;;;;;;5033155;28;20417;-79
2023/02/19 05:53:00;;;;;;;26.10;17.70;;;10.20;99.90;;;;;;5034031;28;20433;-78
2023/02/19 05:55:27;;;;;;;21.73;17.77;;;10.30;99.90;;;;;;5034044;28;20449;-79
2023/02/19 05:57:52;;;;;;;23.37;17.47;;;10.20;99.90;;;;;;5034599;28;20478;-76
2023/02/19 06:00:19;;;;;;;24.37;18.00;;;10.20;99.90;;;;;;5034062;28;20460;-78
2023/02/19 06:02:45;;;;;;;23.83;17.60;;;10.30;99.90;;;;;;5033478;28;20245;-77
2023/02/19 06:05:12;;;;;;;25.33;16.00;;;10.30;99.90;;;;;;5035142;28;20508;-78
2023/02/19 06:07:38;;;;;;;23.90;16.87;;;10.30;99.90;;;;;;5033608;28;20417;-79
2023/02/19 06:10:11;;;;;;;29.87;16.77;;;10.20;99.90;;;;;;5033718;28;20421;-79
2023/02/19 06:12:37;;;;;;;30.30;17.77;;;10.20;99.90;;;;;;5032917;28;20472;-79
2023/02/19 06:15:05;;;;;;;22.37;16.87;;;10.20;99.90;;;;;;5033919;28;20425;-78
2023/02/19 06:17:33;;;;;;;23.47;18.37;;;10.20;99.90;;;;;;5032401;28;20429;-79
2023/02/19 06:20:00;;;;;;;28.67;17.67;;;10.20;99.90;;;;;;5034227;28;20467;-79
2023/02/19 06:22:26;;;;;;;24.57;18.30;;;10.20;99.90;;;;;;5020117;28;20469;-76
2023/02/19 06:24:52;;;;;;;23.10;17.43;;;10.20;99.90;;;;;;5042941;28;20417;-78
2023/02/19 06:27:18;;;;;;;21.73;17.90;;;10.10;99.90;;;;;;5039415;28;20428;-77
2023/02/19 06:29:43;;;;;;;23.17;17.60;;;10.10;99.90;;;;;;5030343;28;20684;-78
2023/02/19 06:32:09;;;;;;;22.30;16.90;;;10.20;99.90;;;;;;5030744;28;20703;-79
2023/02/19 06:34:35;;;;;;;24.17;15.90;;;10.10;99.90;;;;;;5030867;28;20175;-78
2023/02/19 06:37:01;;;;;;;19.90;16.80;;;10.10;99.90;;;;;;5031040;28;20202;-78
2023/02/19 06:39:27;;;;;;;23.60;16.57;;;10.10;99.90;;;;;;5032783;28;20538;-79
2023/02/19 06:41:56;;;;;;;21.77;16.50;;;10.10;99.90;;;;;;5033174;28;20195;-78
2023/02/19 06:44:22;;;;;;;20.23;16.37;;;10.10;99.90;;;;;;5032821;28;20250;-77
2023/02/19 06:46:48;;;;;;;24.77;19.80;;;10.00;99.90;;;;;;5037018;28;20450;-78
2023/02/19 06:49:14;;;;;;;23.43;17.97;;;10.10;99.90;;;;;;5035642;28;20425;-79
2023/02/19 06:51:40;;;;;;;26.33;18.07;;;10.10;99.90;;;;;;5036341;28;20202;-78
2023/02/19 06:54:05;;;;;;;22.67;17.43;;;10.10;99.90;;;;;;5036258;28;20898;-77
2023/02/19 06:56:38;;;;;;;20.37;16.20;;;10.10;99.90;;;;;;5034138;28;20437;-78
2023/02/19 06:59:18;;;;;;;19.43;16.13;;;10.10;99.90;;;;;;5034453;28;20197;-77
2023/02/19 07:01:44;;;;;;;19.17;15.43;;;10.10;99.90;;;;;;5035002;28;20531;-77
2023/02/19 07:04:10;;;;;;;20.63;15.13;;;10.00;99.90;;;;;;5040998;28;21001;-76
2023/02/19 07:06:37;;;;;;;19.90;14.77;;;10.00;99.90;;;;;;5054930;28;20416;-77
2023/02/19 07:09:04;;;;;;;21.53;15.60;;;10.00;99.90;;;;;;5056096;28;20570;-77
2023/02/19 07:11:32;;;;;;;19.97;16.03;;;10.00;99.90;;;;;;5055361;28;20428;-77
2023/02/19 07:13:59;;;;;;;18.00;14.63;;;10.10;99.90;;;;;;5055489;28;20419;-78
2023/02/19 07:16:26;;;;;;;20.00;15.87;;;10.10;99.90;;;;;;5055765;28;20491;-78
2023/02/19 07:18:52;;;;;;;24.53;15.90;;;10.10;99.90;;;;;;5054172;28;20431;-77
2023/02/19 07:21:18;;;;;;;21.10;15.73;;;10.10;99.90;;;;;;5055768;28;20412;-77
2023/02/19 07:23:44;;;;;;;20.10;16.97;;;10.10;99.90;;;;;;5047085;28;20477;-77
2023/02/19 07:26:18;;;;;;;16.03;13.37;;;10.20;99.90;;;;;;5044544;28;20414;-78
2023/02/19 07:28:45;;;;;;;20.17;14.57;;;10.10;99.90;;;;;;5043438;28;20429;-78
2023/02/19 07:31:12;;;;;;;19.33;16.27;;;10.10;99.90;;;;;;5042391;28;21201;-78
2023/02/19 07:33:37;;;;;;;23.40;15.50;;;10.10;99.90;;;;;;5038546;28;20552;-78
2023/02/19 07:36:06;;;;;;;17.00;13.77;;;10.10;99.90;;;;;;5032439;28;20938;-77
2023/02/19 07:38:32;;;;;;;18.70;13.70;;;10.10;99.90;;;;;;5036845;28;20174;-78
2023/02/19 07:40:59;;;;;;;16.87;13.27;;;10.10;99.90;;;;;;5054297;28;20827;-78
2023/02/19 07:43:27;;;;;;;16.50;12.40;;;10.10;99.90;;;;;;5055414;28;20198;-78
2023/02/19 07:45:53;;;;;;;15.80;13.00;;;10.10;99.90;;;;;;5033719;28;20502;-78
2023/02/19 07:48:19;;;;;;;21.27;13.60;;;10.10;99.90;;;;;;5036289;28;20449;-78
2023/02/19 07:50:52;;;;;;;19.03;13.97;;;10.10;99.90;;;;;;5036170;28;20474;-79
2023/02/19 07:53:18;;;;;;;13.97;12.47;;;10.10;99.90;;;;;;5034713;28;20945;-79
2023/02/19 07:55:44;;;;;;;17.13;14.20;;;10.10;99.90;;;;;;5035581;28;20509;-79
2023/02/19 07:58:09;;;;;;;14.73;12.50;;;10.00;99.90;;;;;;5038110;28;20472;-79
2023/02/19 08:00:35;;;;;;;16.83;12.60;;;10.00;99.90;;;;;;5042187;28;20233;-78
2023/02/19 08:03:01;;;;;;;19.10;12.10;;;10.00;99.90;;;;;;5040743;28;20208;-79
2023/02/19 08:05:29;;;;;;;15.47;11.63;;;10.10;99.90;;;;;;5037304;28;20274;-78
2023/02/19 08:07:55;;;;;;;14.87;11.33;;;10.10;99.90;;;;;;5024336;28;20520;-77
2023/02/19 08:13:26;;;;;;;14.13;9.07;;;10.10;99.90;;;;;;5030841;28;20448;-77
2023/02/19 08:15:56;;;;;;;12.17;9.10;;;10.10;99.90;;;;;;5016000;28;20448;-78
2023/02/19 08:18:24;;;;;;;11.13;8.83;;;10.10;99.90;;;;;;5038098;28;20451;-79
2023/02/19 08:20:49;;;;;;;11.80;8.30;;;10.10;99.90;;;;;;5033693;28;21333;-78
2023/02/19 08:23:16;;;;;;;14.87;8.60;;;10.10;99.90;;;;;;5030213;28;20490;-78
2023/02/19 08:25:42;;;;;;;15.47;9.83;;;10.10;99.90;;;;;;5033619;28;20616;-78
2023/02/19 08:28:10;;;;;;;9.33;8.07;;;10.00;99.90;;;;;;5033224;28;20449;-76
2023/02/19 08:30:37;;;;;;;12.30;9.27;;;10.10;99.90;;;;;;5029722;28;20835;-78
2023/02/19 08:33:04;;;;;;;10.37;8.67;;;10.00;99.90;;;;;;5033998;28;20453;-79
2023/02/19 08:35:30;;;;;;;17.40;9.30;;;10.00;99.90;;;;;;5030840;28;20468;-78
2023/02/19 08:37:57;;;;;;;18.90;10.87;;;10.00;99.90;;;;;;5031216;28;20459;-77
2023/02/19 08:40:23;;;;;;;15.67;10.33;;;10.00;99.90;;;;;;5036728;28;20484;-77
2023/02/19 08:42:49;;;;;;;13.90;10.33;;;10.00;99.90;;;;;;5037311;28;20980;-78
2023/02/19 08:45:14;;;;;;;15.57;11.87;;;10.00;99.90;;;;;;5020756;28;20448;-76
2023/02/19 08:47:40;;;;;;;16.33;13.63;;;10.10;99.90;;;;;;5037925;28;20445;-78
2023/02/19 08:50:07;;;;;;;16.60;13.67;;;10.10;99.90;;;;;;5041196;28;20202;-77
2023/02/19 08:52:34;;;;;;;20.33;15.13;;;10.10;99.90;;;;;;5042949;28;20309;-76
2023/02/19 08:55:00;;;;;;;18.13;15.40;;;10.10;99.90;;;;;;5037656;28;20461;-79
2023/02/19 08:57:28;;;;;;;19.90;14.63;;;10.10;99.90;;;;;;5022885;28;20466;-77
2023/02/19 08:59:56;;;;;;;21.60;15.03;;;10.10;99.90;;;;;;5041390;28;20468;-79
2023/02/19 09:02:23;;;;;;;20.57;14.73;;;10.10;99.90;;;;;;5043854;28;20457;-78
2023/02/19 09:04:49;;;;;;;18.67;14.97;;;10.20;99.90;;;;;;5025886;28;20512;-78
2023/02/19 09:07:15;;;;;;;22.60;16.07;;;10.10;99.90;;;;;;5042028;28;20507;-79
2023/02/19 09:09:41;;;;;;;21.27;15.50;;;10.10;99.90;;;;;;5043502;28;20220;-77
2023/02/19 09:12:09;;;;;;;16.57;14.30;;;10.20;99.90;;;;;;5036261;28;20468;-79
2023/02/19 09:14:35;;;;;;;19.77;14.80;;;10.20;99.90;;;;;;5044320;28;20242;-78
2023/02/19 09:17:02;;;;;;;15.40;13.40;;;10.30;99.90;;;;;;5019084;28;20458;-77
2023/02/19 09:19:28;;;;;;;16.97;12.90;;;10.30;99.90;;;;;;5040699;28;20467;-78
2023/02/19 09:21:55;;;;;;;16.43;13.53;;;10.30;99.90;;;;;;5025034;28;20460;-79
2023/02/19 09:24:21;;;;;;;18.03;13.13;;;10.30;99.90;;;;;;5034758;28;20489;-79
2023/02/19 09:26:51;;;;;;;20.77;15.97;;;10.30;99.90;;;;;;5028468;28;20460;-78
2023/02/19 09:29:17;;;;;;;19.10;14.20;;;10.30;99.90;;;;;;5031131;28;20879;-78
2023/02/19 09:31:43;;;;;;;19.40;14.93;;;10.40;99.90;;;;;;5029876;28;20504;-78
2023/02/19 09:34:10;;;;;;;20.43;14.23;;;10.30;99.90;;;;;;5031956;28;20484;-78
2023/02/19 09:36:36;;;;;;;22.83;17.10;;;10.30;99.90;;;;;;5032938;28;20468;-79
2023/02/19 09:39:05;;;;;;;20.43;13.73;;;10.30;99.90;;;;;;5041946;28;20440;-79
2023/02/19 09:41:45;;;;;;;18.57;14.80;;;10.40;99.90;;;;;;5042591;28;20435;-78
2023/02/19 09:44:13;;;;;;;21.30;16.03;;;10.30;99.90;;;;;;5040911;28;20774;-78
2023/02/19 09:46:43;;;;;;;24.33;17.07;;;10.30;99.90;;;;;;5040025;28;20453;-78
2023/02/19 09:49:34;;;;;;;19.27;14.90;;;10.40;99.90;;;;;;5038483;28;20436;-79
2023/02/19 09:52:06;;;;;;;21.97;15.87;;;10.40;99.90;;;;;;5048171;28;20810;-78
2023/02/19 09:54:35;;;;;;;21.60;15.07;;;10.40;99.90;;;;;;5041220;28;20913;-79
2023/02/19 09:57:01;;;;;;;23.20;15.57;;;10.50;99.90;;;;;;5043464;28;20451;-78
2023/02/19 09:59:38;;;;;;;24.27;14.63;;;10.50;99.90;;;;;;5044645;28;20488;-79
2023/02/19 10:02:18;;;;;;;18.80;13.43;;;10.60;99.90;;;;;;5040507;28;20478;-77
2023/02/19 10:04:45;;;;;;;15.70;13.07;;;10.60;99.90;;;;;;5038931;28;20512;-77
2023/02/19 10:07:20;;;;;;;14.20;10.77;;;10.60;99.90;;;;;;5038138;28;20448;-77
2023/02/19 10:09:56;;;;;;;15.27;10.10;;;10.60;99.90;;;;;;5037211;28;20998;-77
2023/02/19 10:12:29;;;;;;;9.53;8.40;;;10.50;99.90;;;;;;5038801;28;20522;-77
2023/02/19 10:15:10;;;;;;;11.80;9.23;;;10.50;99.90;;;;;;5035570;28;20522;-78
2023/02/19 10:17:36;;;;;;;13.07;9.13;;;10.50;99.90;;;;;;5031854;28;20440;-75
2023/02/19 10:20:03;;;;;;;11.97;10.67;;;10.50;99.90;;;;;;5038005;28;20490;-77
2023/02/19 10:22:31;;;;;;;11.83;10.43;;;10.50;99.90;;;;;;5038445;28;20213;-78
2023/02/19 10:24:57;;;;;;;11.90;9.73;;;10.60;99.90;;;;;;5039524;28;20421;-79
2023/02/19 10:27:27;;;;;;;11.60;9.13;;;10.60;99.90;;;;;;5033145;28;20428;-77
2023/02/19 10:29:53;;;;;;;14.10;8.97;;;10.70;99.90;;;;;;5024562;28;20421;-78
2023/02/19 10:32:22;;;;;;;11.27;8.23;;;10.80;99.90;;;;;;5030927;28;20479;-78
2023/02/19 10:35:10;;;;;;;9.33;8.00;;;10.90;99.90;;;;;;5030738;28;20659;-78
2023/02/19 10:37:45;;;;;;;10.53;8.20;;;11.00;99.90;;;;;;5030623;28;20452;-78
2023/02/19 10:40:15;;;;;;;12.43;8.80;;;11.00;99.90;;;;;;5037723;28;20895;-77
2023/02/19 10:42:46;;;;;;;10.30;6.97;;;11.00;99.90;;;;;;5030686;28;20499;-78
2023/02/19 10:45:19;;;;;;;9.63;6.47;;;11.00;99.90;;;;;;5030412;28;20436;-78
2023/02/19 10:47:49;;;;;;;6.53;5.70;;;11.10;99.90;;;;;;5031796;28;20459;-78
2023/02/19 10:50:30;;;;;;;8.93;5.50;;;11.00;99.90;;;;;;5031684;28;20511;-78
2023/02/19 10:52:57;;;;;;;10.30;5.70;;;11.00;99.90;;;;;;5024286;28;20448;-78
2023/02/19 10:55:34;;;;;;;8.37;5.73;;;11.00;99.90;;;;;;5030435;28;20482;-78
2023/02/19 10:58:29;;;;;;;7.40;5.43;;;10.90;99.90;;;;;;5031666;28;20420;-77
2023/02/19 11:01:22;;;;;;;6.70;4.90;;;10.90;99.90;;;;;;5023942;28;20472;-77
2023/02/19 11:03:51;;;;;;;7.60;5.00;;;10.90;99.90;;;;;;5031191;28;20433;-78
2023/02/19 11:06:20;;;;;;;6.83;4.53;;;10.80;99.90;;;;;;5030262;28;20498;-78
2023/02/19 11:08:58;;;;;;;7.57;5.20;;;10.80;99.90;;;;;;5031473;28;20421;-78
2023/02/19 11:11:26;;;;;;;6.60;4.60;;;10.80;99.90;;;;;;5031040;28;20929;-78
2023/02/19 11:13:54;;;;;;;6.00;4.47;;;10.80;99.90;;;;;;5023485;28;20417;-78
2023/02/19 11:16:20;;;;;;;9.27;5.50;;;10.80;99.90;;;;;;5031603;28;20420;-78
2023/02/19 11:18:55;;;;;;;4.97;4.37;;;10.80;99.90;;;;;;5031183;28;20421;-78
2023/02/19 11:21:31;;;;;;;6.30;5.70;;;10.90;99.90;;;;;;5031120;28;20244;-78
2023/02/19 11:24:04;;;;;;;10.20;5.37;;;10.90;99.90;;;;;;5024276;28;20761;-77
2023/02/19 11:26:34;;;;;;;6.07;5.20;;;10.90;99.90;;;;;;5028532;28;21216;-77
2023/02/19 11:29:11;;;;;;;10.33;5.10;;;10.90;99.90;;;;;;5031001;28;20754;-77
2023/02/19 11:31:36;;;;;;;7.30;5.00;;;10.90;99.90;;;;;;5030309;28;20417;-78
2023/02/19 11:34:12;;;;;;;5.97;5.37;;;10.90;99.90;;;;;;5030491;28;20416;-78
2023/02/19 11:36:38;;;;;;;7.60;5.60;;;10.90;99.90;;;;;;5031206;28;20256;-77
2023/02/19 11:39:16;;;;;;;7.00;4.50;;;10.90;99.90;;;;;;5033696;28;20489;-78
2023/02/19 11:42:03;;;;;;;4.50;4.07;;;10.90;99.90;;;;;;5031921;28;20983;-78
2023/02/19 11:44:59;;;;;;;5.07;3.60;;;11.00;99.90;;;;;;5027760;28;20413;-78
2023/02/19 11:47:40;;;;;;;6.60;4.00;;;11.00;99.90;;;;;;5029283;28;20516;-77
2023/02/19 11:50:14;;;;;;;5.13;3.40;;;10.90;99.90;;;;;;5029310;28;20512;-78
2023/02/19 11:52:54;;;;;;;5.20;3.60;;;11.00;99.90;;;;;;5030582;28;20429;-79
2023/02/19 11:55:53;;;;;;;5.13;3.73;;;11.00;99.90;;;;;;5029527;28;20921;-78
2023/02/19 11:58:43;;;;;;;4.10;3.43;;;11.00;99.90;;;;;;5025936;28;20421;-79
2023/02/19 12:01:43;;;;;;;6.53;3.80;;;11.00;99.90;;;;;;5030321;28;20461;-79
2023/02/19 12:04:30;;;;;;;7.00;4.80;;;11.20;99.90;;;;;;5024653;28;20471;-78
2023/02/19 12:07:28;;;;;;;6.60;4.50;;;11.20;99.90;;;;;;5030338;28;20436;-78
2023/02/19 12:10:23;;;;;;;5.50;3.83;;;11.20;99.90;;;;;;5014254;28;20516;-78
2023/02/19 12:13:06;;;;;;;4.10;3.10;;;11.10;99.90;;;;;;5015963;28;20869;-78
2023/02/19 12:16:09;;;;;;;6.67;3.00;;;11.10;99.90;;;;;;5030170;28;20995;-77
2023/02/19 12:19:03;;;;;;;5.83;3.27;;;11.00;99.90;;;;;;5028690;28;20428;-78
2023/02/19 12:21:55;;;;;;;4.40;2.47;;;11.00;99.90;;;;;;5035466;28;20821;-78
2023/02/19 12:25:05;;;;;;;3.53;2.17;;;11.00;99.90;;;;;;5010817;28;20567;-79
2023/02/19 12:27:46;;;;;;;4.17;2.50;;;10.90;99.90;;;;;;5016721;28;20651;-78
2023/02/19 12:30:49;;;;;;;3.20;2.57;;;10.90;99.90;;;;;;5029716;28;20405;-79
2023/02/19 12:33:39;;;;;;;2.73;2.33;;;10.90;99.90;;;;;;5028254;28;20432;-78
2023/02/19 12:36:11;;;;;;;3.90;2.80;;;11.00;99.90;;;;;;5028363;28;20762;-78
2023/02/19 12:38:53;;;;;;;3.87;2.87;;;10.90;99.90;;;;;;5028529;28;20414;-78
2023/02/19 12:41:48;;;;;;;3.90;2.87;;;11.00;99.90;;;;;;5029611;28;20552;-78
2023/02/19 12:44:47;;;;;;;5.37;2.90;;;11.00;99.90;;;;;;5028744;28;20413;-78
2023/02/19 12:47:20;;;;;;;3.00;2.80;;;11.00;99.90;;;;;;5022908;28;20778;-78
2023/02/19 12:50:06;;;;;;;3.70;3.07;;;11.10;99.90;;;;;;5029447;28;20432;-78
2023/02/19 12:52:39;;;;;;;4.27;3.07;;;11.20;99.90;;;;;;5027449;28;20828;-79
2023/02/19 12:55:31;;;;;;;3.93;3.10;;;11.30;99.90;;;;;;5029140;28;20483;-76
2023/02/19 12:58:01;;;;;;;5.00;3.47;;;11.30;99.90;;;;;;5029372;28;20425;-78
2023/02/19 13:00:32;;;;;;;3.80;3.00;;;11.30;99.90;;;;;;5026157;28;20461;-79
2023/02/19 13:03:07;;;;;;;3.33;2.97;;;11.20;99.90;;;;;;5029331;28;20785;-79
2023/02/19 13:05:48;;;;;;;5.27;4.20;;;11.20;99.90;;;;;;5029365;28;20420;-78
2023/02/19 13:08:43;;;;;;;3.50;2.80;;;11.10;99.90;;;;;;5029256;28;20633;-78
2023/02/19 13:11:20;;;;;;;2.80;2.23;;;11.00;99.90;;;;;;5023807;28;20456;-78
2023/02/19 13:13:58;;;;;;;2.23;2.03;;;11.00;99.90;;;;;;5028957;28;20480;-79
2023/02/19 13:16:31;;;;;;;3.90;2.13;;;10.90;99.90;;;;;;5027883;28;20431;-78